Time;durP1;ratioP1;P1;durP2;ratioP2;P2;SDS_P1;SDS_P2;PMS_P1;PMS_P2;Temp;Humidity;BMP_temperature;BMP_pressure;BME280_temperature;BME280_humidity;BME280_pressure;Samples;Min_cycle;Max_cycle;Signal;HPM_P1;HPM_P2
2021/06/29 00:00:41;;;;;;;3.67;3.27;;;24.30;69.00;;;;;;5028607;28;20209;-51
2021/06/29 00:03:08;;;;;;;3.80;3.50;;;23.90;70.50;;;;;;5026232;28;20304;-48
2021/06/29 00:05:36;;;;;;;4.17;3.87;;;23.90;70.30;;;;;;5030818;28;20239;-50
2021/06/29 00:08:03;;;;;;;4.10;3.50;;;24.00;69.90;;;;;;5023257;28;20448;-49
2021/06/29 00:10:30;;;;;;;4.10;3.80;;;24.30;69.90;;;;;;5031091;28;20436;-48
2021/06/29 00:12:56;;;;;;;3.93;3.33;;;24.50;68.20;;;;;;5030564;28;21403;-48
2021/06/29 00:15:24;;;;;;;3.77;3.47;;;24.70;67.50;;;;;;5028033;28;20483;-49
2021/06/29 00:17:50;;;;;;;3.33;3.13;;;25.00;67.10;;;;;;5029535;28;20988;-49
2021/06/29 00:20:16;;;;;;;3.30;3.00;;;25.20;66.10;;;;;;5031812;28;20432;-48
2021/06/29 00:22:42;;;;;;;3.27;3.07;;;25.30;65.40;;;;;;5030509;28;20483;-47
2021/06/29 00:25:09;;;;;;;3.00;2.80;;;25.40;64.60;;;;;;5025426;28;20194;-48
2021/06/29 00:27:34;;;;;;;2.87;2.57;;;25.30;62.90;;;;;;5028665;28;20198;-50
2021/06/29 00:30:00;;;;;;;3.13;2.93;;;25.30;64.40;;;;;;5029721;28;20428;-49
2021/06/29 00:32:25;;;;;;;3.50;3.30;;;25.40;64.10;;;;;;5023396;28;20201;-47
2021/06/29 00:34:51;;;;;;;3.33;3.07;;;25.40;63.10;;;;;;5024642;28;20225;-51
2021/06/29 00:37:17;;;;;;;5.00;3.77;;;25.40;63.30;;;;;;5026846;28;20564;-47
2021/06/29 00:39:42;;;;;;;3.93;2.83;;;25.30;62.70;;;;;;5023014;28;20267;-48
2021/06/29 00:42:08;;;;;;;7.97;3.67;;;25.20;64.50;;;;;;5023506;28;20233;-50
2021/06/29 00:44:34;;;;;;;3.37;2.87;;;25.10;65.10;;;;;;5022921;28;20208;-50
2021/06/29 00:46:59;;;;;;;3.37;3.07;;;25.10;64.60;;;;;;5026483;28;20808;-52
2021/06/29 00:49:25;;;;;;;6.13;3.07;;;25.20;64.10;;;;;;5024520;28;20197;-49
2021/06/29 00:51:51;;;;;;;4.60;3.03;;;25.40;63.50;;;;;;5024967;28;20288;-48
2021/06/29 00:54:17;;;;;;;3.30;3.00;;;25.60;63.00;;;;;;5024745;28;20221;-51
2021/06/29 00:56:46;;;;;;;3.23;2.83;;;25.80;62.20;;;;;;5026649;28;20464;-47
2021/06/29 00:59:12;;;;;;;3.83;2.90;;;25.80;61.70;;;;;;5022710;28;20202;-48
2021/06/29 01:01:38;;;;;;;3.70;2.80;;;25.70;62.10;;;;;;5022985;28;20498;-47
2021/06/29 01:04:06;;;;;;;2.83;2.50;;;25.80;60.80;;;;;;5024942;28;20683;-52
2021/06/29 01:06:32;;;;;;;3.07;2.83;;;25.90;62.10;;;;;;5025392;28;20582;-51
2021/06/29 01:08:59;;;;;;;2.90;2.70;;;25.90;61.00;;;;;;5023471;28;20444;-52
2021/06/29 01:11:25;;;;;;;3.03;2.70;;;25.90;59.30;;;;;;5023656;28;20452;-48
2021/06/29 01:13:50;;;;;;;2.70;2.50;;;25.10;59.90;;;;;;5019837;28;20454;-46
2021/06/29 01:16:16;;;;;;;3.27;2.80;;;25.00;63.70;;;;;;5024592;28;20205;-51
2021/06/29 01:18:44;;;;;;;5.30;3.00;;;25.30;63.30;;;;;;5022013;28;20193;-51
2021/06/29 01:21:19;;;;;;;2.80;2.60;;;25.60;62.60;;;;;;5025993;28;20313;-50
2021/06/29 01:24:08;;;;;;;2.80;2.63;;;25.70;61.50;;;;;;5021485;28;21009;-47
2021/06/29 01:26:37;;;;;;;3.20;2.97;;;25.70;61.20;;;;;;5023187;28;20489;-51
2021/06/29 01:29:05;;;;;;;2.77;2.57;;;25.80;60.80;;;;;;5023485;28;20478;-50
2021/06/29 01:31:32;;;;;;;2.67;2.47;;;25.80;60.30;;;;;;5020531;28;20452;-49
2021/06/29 01:33:58;;;;;;;3.47;3.17;;;25.50;59.30;;;;;;5023411;28;20535;-50
2021/06/29 01:36:34;;;;;;;3.17;2.97;;;25.20;60.50;;;;;;5022516;28;20543;-51
2021/06/29 01:39:00;;;;;;;3.00;2.47;;;24.90;62.20;;;;;;5022039;28;20203;-52
2021/06/29 01:41:26;;;;;;;2.93;2.73;;;25.00;63.50;;;;;;5024611;28;20610;-51
2021/06/29 01:43:54;;;;;;;4.23;2.70;;;25.00;62.90;;;;;;5023097;28;20535;-46
2021/06/29 01:46:21;;;;;;;3.40;3.10;;;24.90;62.50;;;;;;5024661;28;20955;-47
2021/06/29 01:48:48;;;;;;;6.47;2.50;;;24.70;63.80;;;;;;5025092;28;20544;-47
2021/06/29 01:51:14;;;;;;;3.10;2.90;;;24.30;64.90;;;;;;5022184;28;20455;-52
2021/06/29 01:53:40;;;;;;;3.77;3.30;;;24.10;66.30;;;;;;5023543;28;21214;-49
2021/06/29 01:56:14;;;;;;;5.27;3.40;;;23.60;67.20;;;;;;5023072;28;20795;-52
2021/06/29 01:58:40;;;;;;;2.90;2.60;;;23.10;69.80;;;;;;5021981;28;20506;-52
2021/06/29 02:01:06;;;;;;;3.23;2.97;;;23.30;70.20;;;;;;5020853;28;20859;-50
2021/06/29 02:03:32;;;;;;;3.20;3.00;;;23.40;69.20;;;;;;5021497;28;20436;-49
2021/06/29 02:05:57;;;;;;;3.00;2.80;;;23.40;68.90;;;;;;5020855;28;20735;-51
2021/06/29 02:08:23;;;;;;;3.13;2.93;;;23.30;68.60;;;;;;5024217;28;20299;-50
2021/06/29 02:10:48;;;;;;;3.20;3.00;;;23.10;69.90;;;;;;5023677;28;20252;-49
2021/06/29 02:13:14;;;;;;;2.90;2.70;;;22.80;70.10;;;;;;5020671;28;20231;-52
2021/06/29 02:15:39;;;;;;;3.50;3.20;;;22.90;71.40;;;;;;5022809;28;20972;-50
2021/06/29 02:18:05;;;;;;;3.60;3.30;;;22.90;70.80;;;;;;5023206;28;20232;-49
2021/06/29 02:20:31;;;;;;;3.10;2.80;;;22.80;70.40;;;;;;5021713;28;20609;-51
2021/06/29 02:22:56;;;;;;;3.40;3.03;;;22.30;72.00;;;;;;5024315;28;20279;-50
2021/06/29 02:25:22;;;;;;;3.10;2.90;;;22.40;73.90;;;;;;5022608;28;20660;-52
2021/06/29 02:27:48;;;;;;;3.50;3.20;;;22.60;71.90;;;;;;5021431;28;20197;-54
2021/06/29 02:30:14;;;;;;;2.60;2.40;;;23.00;71.90;;;;;;5020575;28;20857;-50
2021/06/29 02:32:40;;;;;;;7.73;2.90;;;23.40;70.80;;;;;;5020602;28;20201;-50
2021/06/29 02:35:06;;;;;;;2.80;2.60;;;23.80;69.50;;;;;;5024081;28;20562;-48
2021/06/29 02:37:32;;;;;;;2.47;2.27;;;24.30;67.80;;;;;;5020597;28;20193;-54
2021/06/29 02:39:57;;;;;;;2.87;2.50;;;24.60;66.30;;;;;;5024049;28;20482;-48
2021/06/29 02:42:23;;;;;;;3.30;3.10;;;24.80;65.40;;;;;;5023308;28;20221;-52
2021/06/29 02:44:49;;;;;;;2.90;2.70;;;25.00;64.60;;;;;;5023843;28;20216;-50
2021/06/29 02:47:15;;;;;;;2.47;2.27;;;25.20;64.00;;;;;;5020059;28;20201;-51
2021/06/29 02:49:41;;;;;;;3.53;2.60;;;25.30;63.10;;;;;;5025267;28;20196;-51
2021/06/29 02:52:07;;;;;;;3.03;2.73;;;25.30;63.00;;;;;;5026401;28;20527;-50
2021/06/29 02:54:33;;;;;;;2.97;2.77;;;25.30;63.00;;;;;;5029526;28;21455;-49
2021/06/29 02:56:59;;;;;;;2.70;2.50;;;25.40;62.20;;;;;;5025421;28;20190;-49
2021/06/29 02:59:25;;;;;;;3.40;3.10;;;25.60;61.90;;;;;;5024965;28;20455;-53
2021/06/29 03:01:51;;;;;;;3.17;2.80;;;25.60;61.70;;;;;;5022884;28;20308;-52
2021/06/29 03:04:16;;;;;;;3.10;2.43;;;25.80;60.50;;;;;;5027767;28;20456;-49
2021/06/29 03:06:42;;;;;;;2.77;2.57;;;25.90;60.50;;;;;;5027564;28;20198;-48
2021/06/29 03:09:09;;;;;;;2.53;2.33;;;25.90;60.30;;;;;;5024417;28;20197;-53
2021/06/29 03:11:38;;;;;;;3.87;2.40;;;26.00;59.80;;;;;;5026213;28;20263;-49
2021/06/29 03:14:04;;;;;;;2.90;2.70;;;26.00;59.90;;;;;;5025921;28;20953;-49
2021/06/29 03:16:30;;;;;;;3.77;2.30;;;26.10;59.60;;;;;;5025567;28;20458;-52
2021/06/29 03:18:57;;;;;;;2.43;2.23;;;26.10;59.40;;;;;;5028327;28;20451;-51
2021/06/29 03:21:23;;;;;;;2.90;2.47;;;26.20;58.60;;;;;;5028769;28;20500;-50
2021/06/29 03:23:50;;;;;;;2.60;2.40;;;26.20;58.80;;;;;;5027549;28;21017;-52
2021/06/29 03:26:15;;;;;;;2.47;2.27;;;26.10;59.20;;;;;;5026266;28;20291;-49
2021/06/29 03:28:41;;;;;;;2.13;2.00;;;26.10;59.20;;;;;;5030515;28;20911;-49
2021/06/29 03:31:07;;;;;;;2.17;2.07;;;26.10;59.20;;;;;;5021831;28;20659;-51
2021/06/29 03:33:32;;;;;;;2.80;2.27;;;26.20;59.00;;;;;;5028832;28;20269;-52
2021/06/29 03:35:58;;;;;;;2.70;2.50;;;26.20;59.00;;;;;;5025384;28;20201;-51
2021/06/29 03:38:24;;;;;;;2.37;2.27;;;26.30;58.80;;;;;;5025756;28;20185;-51
2021/06/29 03:40:50;;;;;;;3.90;2.97;;;26.40;58.70;;;;;;5029655;28;20225;-48
2021/06/29 03:43:16;;;;;;;2.60;2.23;;;26.30;58.40;;;;;;5023221;28;20459;-51
2021/06/29 03:45:41;;;;;;;2.63;2.43;;;26.10;59.00;;;;;;5022452;28;20440;-50
2021/06/29 03:48:07;;;;;;;2.47;2.30;;;26.10;58.70;;;;;;5029813;28;20262;-51
2021/06/29 03:50:33;;;;;;;2.70;2.30;;;26.00;59.20;;;;;;5023996;28;20201;-49
2021/06/29 03:52:58;;;;;;;2.60;2.40;;;26.00;59.30;;;;;;5027720;28;20204;-50
2021/06/29 03:55:24;;;;;;;2.73;2.53;;;25.90;59.20;;;;;;5026657;28;21311;-51
2021/06/29 03:57:49;;;;;;;3.20;3.00;;;25.60;59.70;;;;;;5025538;28;20281;-51
2021/06/29 04:00:15;;;;;;;5.33;2.80;;;25.40;60.10;;;;;;5023380;28;20197;-46
2021/06/29 04:02:41;;;;;;;3.30;2.70;;;25.30;62.00;;;;;;5022937;28;20229;-50
2021/06/29 04:05:07;;;;;;;3.00;2.57;;;25.30;62.00;;;;;;5023175;28;20194;-50
2021/06/29 04:07:34;;;;;;;3.07;2.80;;;25.30;61.90;;;;;;5022675;28;20235;-48
2021/06/29 04:09:59;;;;;;;2.43;2.23;;;25.50;61.40;;;;;;5021307;28;21469;-51
2021/06/29 04:12:27;;;;;;;2.80;2.17;;;25.60;61.00;;;;;;5019899;28;20456;-51
2021/06/29 04:14:53;;;;;;;3.80;2.80;;;25.70;60.70;;;;;;5016144;28;20216;-52
2021/06/29 04:17:18;;;;;;;3.27;2.50;;;25.70;60.50;;;;;;5024189;28;20472;-49
2021/06/29 04:19:44;;;;;;;2.63;2.43;;;25.70;60.30;;;;;;5026495;28;20492;-51
2021/06/29 04:22:10;;;;;;;2.50;2.30;;;25.90;59.80;;;;;;5024708;28;20300;-52
2021/06/29 04:24:36;;;;;;;2.90;2.40;;;26.00;59.80;;;;;;5022310;28;20197;-51
2021/06/29 04:27:02;;;;;;;3.73;2.30;;;26.00;59.60;;;;;;5025765;28;20208;-49
2021/06/29 04:29:28;;;;;;;3.43;2.67;;;26.10;59.30;;;;;;5021829;28;20443;-47
2021/06/29 04:31:53;;;;;;;2.63;2.43;;;26.20;59.00;;;;;;5024466;28;20432;-51
2021/06/29 04:34:19;;;;;;;3.03;2.83;;;26.10;58.90;;;;;;5025830;28;20280;-51
2021/06/29 04:36:45;;;;;;;4.33;2.80;;;26.00;59.00;;;;;;5026311;28;20264;-51
2021/06/29 04:39:11;;;;;;;4.70;2.40;;;25.90;59.30;;;;;;5022485;28;20228;-51
2021/06/29 04:41:37;;;;;;;2.70;2.50;;;25.70;59.80;;;;;;5027219;28;20268;-51
2021/06/29 04:44:03;;;;;;;2.40;2.20;;;25.40;60.20;;;;;;5024560;28;20882;-52
2021/06/29 04:46:28;;;;;;;2.70;2.50;;;24.90;61.60;;;;;;5018859;28;20830;-50
2021/06/29 04:48:54;;;;;;;5.17;2.40;;;24.70;62.40;;;;;;5022021;28;20456;-52
2021/06/29 04:51:19;;;;;;;2.70;2.50;;;24.20;63.30;;;;;;5027463;28;20707;-51
2021/06/29 04:53:45;;;;;;;3.50;2.40;;;23.40;64.90;;;;;;5026664;28;20201;-50
2021/06/29 04:56:17;;;;;;;2.50;2.40;;;23.20;66.20;;;;;;5024997;28;20193;-54
2021/06/29 04:58:52;;;;;;;3.43;2.90;;;22.90;67.70;;;;;;5025785;28;20193;-53
2021/06/29 05:01:19;;;;;;;3.63;3.10;;;22.30;70.30;;;;;;5025603;28;20486;-54
2021/06/29 05:03:45;;;;;;;2.43;2.33;;;22.50;67.70;;;;;;5028030;28;20510;-53
2021/06/29 05:06:10;;;;;;;3.23;2.47;;;22.80;66.70;;;;;;5021034;28;20456;-50
2021/06/29 05:08:36;;;;;;;3.50;3.20;;;23.00;67.50;;;;;;5022973;28;20189;-50
2021/06/29 05:11:02;;;;;;;2.87;2.60;;;23.20;67.50;;;;;;5027552;28;20225;-52
2021/06/29 05:13:28;;;;;;;3.40;2.80;;;23.20;67.70;;;;;;5026425;28;20189;-53
2021/06/29 05:15:54;;;;;;;7.33;3.70;;;23.30;67.90;;;;;;5018056;28;20523;-52
2021/06/29 05:18:19;;;;;;;5.83;3.40;;;23.10;68.70;;;;;;5024826;28;20201;-51
2021/06/29 05:20:45;;;;;;;3.43;3.10;;;23.20;69.50;;;;;;5029212;28;20822;-54
2021/06/29 05:23:10;;;;;;;4.20;3.00;;;23.30;69.40;;;;;;5028501;28;20327;-54
2021/06/29 05:25:36;;;;;;;5.87;3.50;;;23.40;70.20;;;;;;5021142;28;20225;-54
2021/06/29 05:28:02;;;;;;;4.43;2.93;;;23.60;69.30;;;;;;5022290;28;20225;-53
2021/06/29 05:30:28;;;;;;;4.23;2.47;;;23.80;68.70;;;;;;5027478;28;20663;-54
2021/06/29 05:32:54;;;;;;;4.77;3.37;;;23.90;67.80;;;;;;5024681;28;20468;-51
2021/06/29 05:35:19;;;;;;;4.63;2.87;;;24.00;68.50;;;;;;5025800;28;20272;-51
2021/06/29 05:37:45;;;;;;;3.60;3.30;;;24.30;67.10;;;;;;5029214;28;20201;-52
2021/06/29 05:40:11;;;;;;;3.60;3.30;;;24.60;66.50;;;;;;5024588;28;20248;-52
2021/06/29 05:42:36;;;;;;;11.50;4.03;;;24.70;66.10;;;;;;5030090;28;20701;-49
2021/06/29 05:45:03;;;;;;;4.37;3.97;;;24.80;65.00;;;;;;5030332;28;20557;-47
2021/06/29 05:47:31;;;;;;;3.47;3.17;;;24.80;64.20;;;;;;5031049;28;20216;-48
2021/06/29 05:49:57;;;;;;;3.97;3.63;;;24.80;63.80;;;;;;5030027;28;20951;-48
2021/06/29 05:52:22;;;;;;;4.17;3.77;;;24.70;64.10;;;;;;5030936;28;20436;-51
2021/06/29 05:54:48;;;;;;;5.03;3.40;;;24.60;64.50;;;;;;5029735;28;20227;-52
2021/06/29 05:57:14;;;;;;;4.20;3.80;;;24.50;64.50;;;;;;5026255;28;20193;-51
2021/06/29 05:59:40;;;;;;;4.87;3.80;;;24.00;66.00;;;;;;5028429;28;20193;-52
2021/06/29 06:02:07;;;;;;;4.80;4.20;;;23.90;66.70;;;;;;5027131;28;20479;-53
2021/06/29 06:04:33;;;;;;;4.80;4.50;;;24.00;67.40;;;;;;5024201;28;20436;-49
2021/06/29 06:06:59;;;;;;;4.07;3.50;;;24.00;67.20;;;;;;5026953;28;20444;-51
2021/06/29 06:09:25;;;;;;;4.40;4.10;;;24.10;67.20;;;;;;5028124;28;20292;-50
2021/06/29 06:11:50;;;;;;;4.03;3.73;;;24.20;67.30;;;;;;5029199;28;20578;-50
2021/06/29 06:14:16;;;;;;;3.83;3.63;;;24.10;67.20;;;;;;5030914;28;20201;-50
2021/06/29 06:16:41;;;;;;;6.43;4.33;;;24.20;67.30;;;;;;5030658;28;20272;-53
2021/06/29 06:19:07;;;;;;;4.00;3.70;;;24.30;67.00;;;;;;5030868;28;20675;-48
2021/06/29 06:21:32;;;;;;;4.10;3.90;;;24.20;67.50;;;;;;5030050;28;20632;-53
2021/06/29 06:23:58;;;;;;;4.17;3.73;;;24.20;67.90;;;;;;5032332;28;20197;-51
2021/06/29 06:26:23;;;;;;;6.00;3.93;;;24.30;67.50;;;;;;5026573;28;20196;-53
2021/06/29 06:28:49;;;;;;;7.37;3.43;;;24.60;66.50;;;;;;5031244;28;20188;-49
2021/06/29 06:31:15;;;;;;;5.33;3.90;;;24.80;65.80;;;;;;5031279;28;20201;-52
2021/06/29 06:33:40;;;;;;;3.70;3.30;;;25.00;65.20;;;;;;5033489;28;20255;-50
2021/06/29 06:36:06;;;;;;;4.60;4.13;;;25.20;64.80;;;;;;5027864;28;20185;-49
2021/06/29 06:38:31;;;;;;;3.87;3.53;;;25.20;64.40;;;;;;5026905;28;20243;-48
2021/06/29 06:40:57;;;;;;;5.20;3.60;;;25.30;64.10;;;;;;5030654;28;20730;-48
2021/06/29 06:43:23;;;;;;;8.43;3.37;;;25.40;63.50;;;;;;5028861;28;20590;-48
2021/06/29 06:45:48;;;;;;;3.10;2.90;;;25.40;63.40;;;;;;5027701;28;20197;-49
2021/06/29 06:48:14;;;;;;;4.30;2.80;;;25.50;63.40;;;;;;5027674;28;20243;-48
2021/06/29 06:50:39;;;;;;;4.23;3.60;;;25.70;62.50;;;;;;5032892;28;20276;-51
2021/06/29 06:53:05;;;;;;;3.73;2.63;;;25.70;61.00;;;;;;5034487;28;20311;-48
2021/06/29 06:55:31;;;;;;;3.63;2.93;;;25.80;61.60;;;;;;5032248;28;20586;-47
2021/06/29 06:57:57;;;;;;;3.67;3.30;;;25.90;61.60;;;;;;5030005;28;20610;-52
2021/06/29 07:00:24;;;;;;;3.90;3.53;;;25.90;61.20;;;;;;5025325;28;20281;-50
2021/06/29 07:02:49;;;;;;;3.37;3.07;;;26.10;60.90;;;;;;5022273;28;20475;-48
2021/06/29 07:05:15;;;;;;;3.23;2.90;;;26.10;59.70;;;;;;5023233;28;20985;-48
2021/06/29 07:07:41;;;;;;;5.50;3.37;;;26.30;60.90;;;;;;5034389;28;20205;-48
2021/06/29 07:10:07;;;;;;;3.27;3.00;;;26.50;61.30;;;;;;5019509;28;20650;-48
2021/06/29 07:12:33;;;;;;;4.23;2.70;;;26.50;60.10;;;;;;5025903;28;20220;-46
2021/06/29 07:14:59;;;;;;;3.40;2.70;;;26.70;60.50;;;;;;5032667;28;20432;-51
2021/06/29 07:17:24;;;;;;;6.50;3.20;;;26.80;59.80;;;;;;5028409;28;20201;-47
2021/06/29 07:19:51;;;;;;;3.70;3.33;;;26.90;60.50;;;;;;5033822;28;20296;-50
2021/06/29 07:22:18;;;;;;;3.03;2.83;;;27.00;61.70;;;;;;5031812;28;20229;-48
2021/06/29 07:24:43;;;;;;;3.13;2.93;;;27.00;58.60;;;;;;5031999;28;20467;-47
2021/06/29 07:27:09;;;;;;;7.73;2.90;;;27.10;60.10;;;;;;5033960;28;20770;-49
2021/06/29 07:29:35;;;;;;;3.27;2.80;;;27.20;59.30;;;;;;5032263;28;20196;-49
2021/06/29 07:32:01;;;;;;;2.83;2.63;;;27.30;62.00;;;;;;5031338;28;20190;-47
2021/06/29 07:34:26;;;;;;;3.47;3.17;;;27.40;60.00;;;;;;5032800;28;20208;-47
2021/06/29 07:36:52;;;;;;;2.97;2.77;;;27.30;57.70;;;;;;5033152;28;20204;-51
2021/06/29 07:39:18;;;;;;;3.07;2.70;;;27.40;59.20;;;;;;5033624;28;20197;-51
2021/06/29 07:41:43;;;;;;;2.50;2.30;;;27.50;57.40;;;;;;5033164;28;20605;-51
2021/06/29 07:44:10;;;;;;;2.67;2.47;;;27.70;60.20;;;;;;5032302;28;20193;-49
2021/06/29 07:46:35;;;;;;;2.80;2.60;;;27.70;59.10;;;;;;5033286;28;20665;-50
2021/06/29 07:49:02;;;;;;;6.50;2.90;;;27.80;61.20;;;;;;5029848;28;20478;-51
2021/06/29 07:51:27;;;;;;;3.03;2.80;;;28.00;59.30;;;;;;5032160;28;20246;-46
2021/06/29 07:53:53;;;;;;;3.80;2.97;;;27.70;56.80;;;;;;5023898;28;20458;-51
2021/06/29 07:56:19;;;;;;;3.77;2.80;;;27.80;57.50;;;;;;5017271;28;20186;-50
2021/06/29 07:58:45;;;;;;;2.40;2.30;;;28.10;57.80;;;;;;5027783;28;20193;-51
2021/06/29 08:01:15;;;;;;;2.87;2.67;;;28.20;55.20;;;;;;5022560;28;20675;-50
2021/06/29 08:03:42;;;;;;;2.23;2.13;;;28.50;55.70;;;;;;5031597;28;20515;-49
2021/06/29 08:06:07;;;;;;;2.33;2.23;;;28.70;55.60;;;;;;5031403;28;20472;-50
2021/06/29 08:08:33;;;;;;;3.07;2.30;;;28.40;51.40;;;;;;5031117;28;20432;-47
2021/06/29 08:11:01;;;;;;;3.10;2.60;;;27.80;52.40;;;;;;5031327;28;20205;-50
2021/06/29 08:13:26;;;;;;;2.90;2.47;;;27.90;54.60;;;;;;5026227;28;20351;-49
2021/06/29 08:15:52;;;;;;;2.30;2.10;;;28.20;56.10;;;;;;5027869;28;20955;-49
2021/06/29 08:18:18;;;;;;;3.00;2.50;;;28.30;53.40;;;;;;5022742;28;20201;-53
2021/06/29 08:20:44;;;;;;;2.10;1.90;;;28.30;55.50;;;;;;5027400;28;20429;-52
2021/06/29 08:23:11;;;;;;;2.13;2.00;;;28.70;54.40;;;;;;5024662;28;20228;-51
2021/06/29 08:25:38;;;;;;;2.30;2.20;;;28.80;54.10;;;;;;5024755;28;20433;-50
2021/06/29 08:28:03;;;;;;;3.27;3.00;;;28.90;53.30;;;;;;5017253;28;20452;-48
2021/06/29 08:30:29;;;;;;;2.30;2.10;;;29.10;53.50;;;;;;5027173;28;20864;-50
2021/06/29 08:32:55;;;;;;;2.23;2.10;;;29.20;52.50;;;;;;5021734;28;20221;-53
2021/06/29 08:35:21;;;;;;;1.80;1.70;;;29.40;52.50;;;;;;5028931;28;20193;-52
2021/06/29 08:37:47;;;;;;;2.20;2.10;;;29.50;50.40;;;;;;5027004;28;20185;-51
2021/06/29 08:40:14;;;;;;;1.93;1.73;;;29.50;50.20;;;;;;5028993;28;20693;-52
2021/06/29 08:42:40;;;;;;;2.50;2.30;;;29.60;49.70;;;;;;5028885;28;20488;-52
2021/06/29 08:45:16;;;;;;;2.03;1.80;;;29.70;50.10;;;;;;5017376;28;20429;-48
2021/06/29 08:47:42;;;;;;;2.07;1.97;;;29.70;49.80;;;;;;5029431;28;20471;-48
2021/06/29 08:50:11;;;;;;;1.80;1.70;;;29.70;48.40;;;;;;5030973;28;20474;-53
2021/06/29 08:52:36;;;;;;;1.73;1.63;;;29.70;48.90;;;;;;5031201;28;20436;-49
2021/06/29 08:55:05;;;;;;;3.53;2.57;;;29.60;46.90;;;;;;5029690;28;21014;-52
2021/06/29 08:57:31;;;;;;;1.70;1.60;;;29.60;47.70;;;;;;5028853;28;20201;-51
2021/06/29 08:59:58;;;;;;;1.40;1.40;;;29.40;47.20;;;;;;5029055;28;20452;-51
2021/06/29 09:02:24;;;;;;;1.70;1.60;;;29.40;46.00;;;;;;5030254;28;20688;-50
2021/06/29 09:04:54;;;;;;;2.50;1.80;;;29.70;47.80;;;;;;5031052;28;20945;-52
2021/06/29 09:07:24;;;;;;;2.40;1.60;;;29.90;47.70;;;;;;5014773;28;20433;-52
2021/06/29 09:09:54;;;;;;;5.23;1.77;;;30.10;46.80;;;;;;5028636;28;20997;-53
2021/06/29 09:12:41;;;;;;;3.80;1.63;;;29.90;46.80;;;;;;5016904;28;20444;-50
2021/06/29 09:15:24;;;;;;;1.70;1.60;;;30.00;46.70;;;;;;5025462;28;20440;-49
2021/06/29 09:17:55;;;;;;;1.50;1.40;;;30.10;45.00;;;;;;5028634;28;20447;-50
2021/06/29 09:20:30;;;;;;;3.03;1.50;;;30.30;46.80;;;;;;5028477;28;20436;-49
2021/06/29 09:22:58;;;;;;;1.50;1.40;;;30.50;47.00;;;;;;5030356;28;20549;-49
2021/06/29 09:25:29;;;;;;;2.33;2.13;;;30.50;45.60;;;;;;5029310;28;20799;-47
2021/06/29 09:27:57;;;;;;;2.03;1.93;;;30.60;46.00;;;;;;5027847;28;20503;-49
2021/06/29 09:30:42;;;;;;;1.87;1.77;;;30.70;46.00;;;;;;5024786;28;20444;-48
2021/06/29 09:33:22;;;;;;;1.97;1.40;;;30.90;45.20;;;;;;5026574;28;20797;-48
2021/06/29 09:35:52;;;;;;;2.40;1.60;;;30.90;44.20;;;;;;5023276;28;20461;-49
2021/06/29 09:38:22;;;;;;;3.90;1.30;;;31.00;43.80;;;;;;5017909;28;20907;-48
2021/06/29 09:40:53;;;;;;;2.30;1.80;;;31.10;43.00;;;;;;5023274;28;20472;-48
2021/06/29 09:43:19;;;;;;;2.93;1.63;;;31.10;42.60;;;;;;5025465;28;20491;-47
2021/06/29 09:45:51;;;;;;;1.77;1.67;;;31.20;43.30;;;;;;5025390;28;20432;-49
2021/06/29 09:48:27;;;;;;;2.20;1.40;;;31.10;41.60;;;;;;5026115;28;20439;-48
2021/06/29 09:50:55;;;;;;;4.30;2.43;;;31.00;42.10;;;;;;5025856;28;20439;-48
2021/06/29 09:53:23;;;;;;;1.90;1.60;;;31.20;44.00;;;;;;5028856;28;20451;-48
2021/06/29 09:55:54;;;;;;;3.73;2.13;;;31.20;41.50;;;;;;5022402;28;20451;-47
2021/06/29 09:58:21;;;;;;;5.10;1.63;;;31.40;44.60;;;;;;5027969;28;20478;-48
2021/06/29 10:00:51;;;;;;;6.60;3.10;;;31.70;43.20;;;;;;5028964;28;20520;-47
2021/06/29 10:03:23;;;;;;;43.30;12.00;;;31.70;41.90;;;;;;5021486;28;20491;-49
2021/06/29 10:05:51;;;;;;;34.97;10.90;;;31.80;43.20;;;;;;5027402;28;20475;-49
2021/06/29 10:08:32;;;;;;;24.20;8.87;;;32.00;43.30;;;;;;5029882;28;20578;-49
2021/06/29 10:11:17;;;;;;;26.73;8.83;;;32.20;43.30;;;;;;5022528;28;20439;-48
2021/06/29 10:13:45;;;;;;;23.33;8.63;;;32.30;43.40;;;;;;5025750;28;20439;-49
2021/06/29 10:16:12;;;;;;;31.20;11.40;;;32.50;43.80;;;;;;5028732;28;20946;-48
2021/06/29 10:21:25;;;;;;;5.17;2.53;;;32.30;40.20;;;;;;5021355;28;20435;-48
2021/06/29 10:24:03;;;;;;;10.67;5.47;;;32.30;42.10;;;;;;5026050;28;20523;-52
2021/06/29 10:26:31;;;;;;;7.43;4.13;;;32.40;43.40;;;;;;5023701;28;20442;-48
2021/06/29 10:28:57;;;;;;;6.90;3.77;;;32.50;43.20;;;;;;5028185;28;20589;-47
2021/06/29 10:31:32;;;;;;;5.40;3.70;;;32.70;42.80;;;;;;5023737;28;20535;-47
2021/06/29 10:34:02;;;;;;;2.90;2.33;;;32.90;42.40;;;;;;5025834;28;20439;-47
2021/06/29 10:36:30;;;;;;;3.13;2.83;;;33.00;41.10;;;;;;5026906;28;20432;-48
2021/06/29 10:38:58;;;;;;;3.17;2.40;;;33.00;42.80;;;;;;5023556;28;20432;-47
2021/06/29 10:41:31;;;;;;;2.20;2.10;;;33.10;42.90;;;;;;5024796;28;20460;-48
2021/06/29 10:43:57;;;;;;;2.87;2.07;;;33.10;42.50;;;;;;5024128;28;20519;-48
2021/06/29 10:46:28;;;;;;;2.43;2.23;;;33.20;42.30;;;;;;5024385;28;20523;-49
2021/06/29 10:49:17;;;;;;;3.80;2.00;;;33.30;41.80;;;;;;5019233;28;20547;-47
2021/06/29 10:51:43;;;;;;;1.70;1.60;;;33.30;41.80;;;;;;5022743;28;20447;-47
2021/06/29 10:54:39;;;;;;;1.80;1.70;;;33.20;40.40;;;;;;5026628;28;20471;-50
2021/06/29 10:57:10;;;;;;;2.87;1.50;;;33.30;39.90;;;;;;5023884;28;20194;-46
2021/06/29 10:59:39;;;;;;;2.10;2.00;;;33.30;40.10;;;;;;5020777;28;20456;-47
2021/06/29 11:02:06;;;;;;;1.60;1.50;;;33.40;39.50;;;;;;5026097;28;20864;-45
2021/06/29 11:04:47;;;;;;;2.30;1.87;;;32.90;36.90;;;;;;5028126;28;20813;-51
2021/06/29 11:07:35;;;;;;;1.33;1.23;;;31.90;39.70;;;;;;5016733;28;20446;-45
2021/06/29 11:10:04;;;;;;;1.87;1.77;;;32.10;40.30;;;;;;5021260;28;20498;-45
2021/06/29 11:12:31;;;;;;;2.13;1.53;;;32.00;40.20;;;;;;5031604;28;20439;-47
2021/06/29 11:14:59;;;;;;;1.70;1.60;;;32.20;39.50;;;;;;5033107;28;20432;-45
2021/06/29 11:17:50;;;;;;;1.60;1.50;;;32.00;40.00;;;;;;5033175;28;20439;-46
2021/06/29 11:20:37;;;;;;;1.90;1.80;;;32.50;39.30;;;;;;5020778;28;20448;-45
2021/06/29 11:23:07;;;;;;;1.83;1.70;;;33.00;40.40;;;;;;5020228;28;20836;-46
2021/06/29 11:25:43;;;;;;;1.80;1.70;;;33.30;39.30;;;;;;5031769;28;20443;-46
2021/06/29 11:28:22;;;;;;;5.83;1.60;;;33.60;38.60;;;;;;5030592;28;20443;-47
2021/06/29 11:30:53;;;;;;;3.83;1.90;;;33.90;38.70;;;;;;5032024;28;20986;-47
2021/06/29 11:33:40;;;;;;;2.00;1.50;;;34.10;37.30;;;;;;5024682;28;20440;-47
2021/06/29 11:36:28;;;;;;;1.93;1.83;;;34.00;38.60;;;;;;5020663;28;20446;-45
2021/06/29 11:39:00;;;;;;;1.77;1.67;;;34.10;37.70;;;;;;5029781;28;20947;-46
2021/06/29 11:41:28;;;;;;;1.73;1.60;;;34.30;37.70;;;;;;5027209;28;20471;-47
2021/06/29 11:44:18;;;;;;;1.80;1.70;;;34.30;36.90;;;;;;5026860;28;20926;-47
2021/06/29 11:46:53;;;;;;;1.80;1.70;;;34.40;36.30;;;;;;5025116;28;20444;-46
2021/06/29 11:49:48;;;;;;;1.90;1.80;;;34.20;36.20;;;;;;5024798;28;20456;-47
2021/06/29 11:52:13;;;;;;;2.27;2.17;;;34.20;36.50;;;;;;5030057;28;20463;-47
2021/06/29 11:54:54;;;;;;;3.23;2.10;;;34.10;37.20;;;;;;5019089;28;20452;-48
2021/06/29 11:57:38;;;;;;;2.13;1.90;;;34.20;37.10;;;;;;5027674;28;20197;-52
2021/06/29 12:00:22;;;;;;;2.10;2.00;;;34.20;37.90;;;;;;5023442;28;20444;-49
2021/06/29 12:02:50;;;;;;;1.93;1.83;;;34.10;38.50;;;;;;5025266;28;20491;-50
2021/06/29 12:05:19;;;;;;;1.80;1.70;;;34.10;37.60;;;;;;5022092;28;20786;-47
2021/06/29 12:07:51;;;;;;;1.80;1.70;;;34.20;37.80;;;;;;5024459;28;20440;-47
2021/06/29 12:10:21;;;;;;;1.90;1.80;;;34.20;36.80;;;;;;5026410;28;20498;-46
2021/06/29 12:12:50;;;;;;;2.53;1.70;;;34.30;38.10;;;;;;5030582;28;20489;-52
2021/06/29 12:15:30;;;;;;;2.00;1.80;;;34.10;38.50;;;;;;5027167;28;20437;-46
2021/06/29 12:18:02;;;;;;;1.70;1.60;;;34.20;38.30;;;;;;5031537;28;20526;-48
2021/06/29 12:20:34;;;;;;;2.33;2.00;;;34.20;38.10;;;;;;5027463;28;20903;-46
2021/06/29 12:23:01;;;;;;;1.80;1.70;;;34.20;38.40;;;;;;5032331;28;20632;-46
2021/06/29 12:25:51;;;;;;;1.83;1.73;;;34.30;38.20;;;;;;5029724;28;20440;-51
2021/06/29 12:28:26;;;;;;;2.20;2.10;;;34.40;38.00;;;;;;5026289;28;20471;-46
2021/06/29 12:30:57;;;;;;;2.07;1.97;;;34.50;38.00;;;;;;5024259;28;20447;-47
2021/06/29 12:33:31;;;;;;;1.77;1.67;;;34.60;37.20;;;;;;5031916;28;20454;-49
2021/06/29 12:36:12;;;;;;;2.10;2.00;;;34.60;38.20;;;;;;5032214;28;20436;-47
2021/06/29 12:39:00;;;;;;;2.30;2.13;;;34.60;37.80;;;;;;5029089;28;20455;-49
2021/06/29 12:41:35;;;;;;;1.93;1.83;;;34.60;37.50;;;;;;5027188;28;20472;-46
2021/06/29 12:44:07;;;;;;;2.20;2.00;;;34.70;37.60;;;;;;5029720;28;20520;-46
2021/06/29 12:46:41;;;;;;;3.40;2.20;;;34.60;37.60;;;;;;5029872;28;20799;-49
2021/06/29 12:49:24;;;;;;;2.00;1.90;;;34.30;36.70;;;;;;5021053;28;20456;-50
2021/06/29 12:51:56;;;;;;;2.10;1.97;;;34.10;36.80;;;;;;5021910;28;20447;-48
2021/06/29 12:54:24;;;;;;;2.33;2.00;;;34.00;37.10;;;;;;5029736;28;20498;-48